Time;durP1;ratioP1;P1;durP2;ratioP2;P2;SDS_P1;SDS_P2;PMS_P1;PMS_P2;Temp;Humidity;BMP_temperature;BMP_pressure;BME280_temperature;BME280_humidity;BME280_pressure;Samples;Min_cycle;Max_cycle;Signal;HPM_P1;HPM_P2
2022/12/06 00:00:46;;;;;;;8.55;6.20;;;6.00;99.90;;;;;;5046441;28;20581;-76
2022/12/06 00:03:33;;;;;;;8.13;6.22;;;6.00;99.90;;;;;;5047197;28;20681;-76
2022/12/06 00:06:21;;;;;;;13.75;7.00;;;6.00;99.90;;;;;;5053135;28;20618;-77
2022/12/06 00:09:07;;;;;;;6.70;5.90;;;6.00;99.90;;;;;;5052372;28;20277;-76
2022/12/06 00:11:53;;;;;;;12.25;6.65;;;6.10;99.90;;;;;;5047756;28;20213;-77
2022/12/06 00:14:39;;;;;;;7.78;6.53;;;6.10;99.90;;;;;;5045203;28;20236;-77
2022/12/06 00:17:24;;;;;;;8.13;6.57;;;6.20;99.90;;;;;;5048034;28;20244;-76
2022/12/06 00:20:12;;;;;;;7.82;6.20;;;6.20;99.90;;;;;;5052299;28;20568;-76
2022/12/06 00:22:57;;;;;;;9.25;6.35;;;6.30;99.90;;;;;;5045683;28;20353;-76
2022/12/06 00:25:43;;;;;;;9.88;6.32;;;6.20;99.90;;;;;;5048058;28;20221;-76
2022/12/06 00:28:28;;;;;;;6.60;5.80;;;6.30;99.90;;;;;;5053786;28;20559;-77
2022/12/06 00:31:17;;;;;;;9.23;7.25;;;6.30;99.90;;;;;;5053043;28;20336;-76
2022/12/06 00:34:03;;;;;;;9.00;6.32;;;6.30;99.90;;;;;;5044882;28;20335;-75
2022/12/06 00:36:50;;;;;;;7.10;5.65;;;6.30;99.90;;;;;;5033920;28;20201;-75
2022/12/06 00:39:35;;;;;;;8.15;6.35;;;6.20;99.90;;;;;;5046180;28;20203;-76
2022/12/06 00:42:21;;;;;;;7.55;5.88;;;6.20;99.90;;;;;;5044032;28;20204;-76
2022/12/06 00:45:08;;;;;;;7.88;5.72;;;6.20;99.90;;;;;;5050916;28;20725;-76
2022/12/06 00:47:53;;;;;;;7.60;6.25;;;6.20;99.90;;;;;;5050996;28;20259;-76
2022/12/06 00:50:39;;;;;;;9.38;6.50;;;6.30;99.90;;;;;;5049534;28;20240;-76
2022/12/06 00:53:26;;;;;;;7.63;6.18;;;6.20;99.90;;;;;;5050893;28;20232;-77
2022/12/06 00:56:12;;;;;;;6.70;5.40;;;6.20;99.90;;;;;;5052191;28;20279;-76
2022/12/06 00:58:58;;;;;;;11.75;6.05;;;6.10;99.90;;;;;;5046183;28;20208;-76
2022/12/06 01:01:43;;;;;;;6.82;6.00;;;6.10;99.90;;;;;;5041701;28;20209;-76
2022/12/06 01:04:29;;;;;;;10.82;6.25;;;6.00;99.90;;;;;;5044898;28;20307;-77
2022/12/06 01:07:14;;;;;;;9.00;6.70;;;6.10;99.90;;;;;;5045455;28;20897;-76
2022/12/06 01:10:01;;;;;;;8.43;6.60;;;6.10;99.90;;;;;;5054979;28;20209;-77
2022/12/06 01:12:47;;;;;;;7.40;6.00;;;6.00;99.90;;;;;;5047610;28;20212;-77
2022/12/06 01:15:35;;;;;;;7.88;6.00;;;6.10;99.90;;;;;;5053009;28;20728;-77
2022/12/06 01:18:21;;;;;;;8.63;5.43;;;6.10;99.90;;;;;;5052990;28;20248;-77
2022/12/06 01:21:08;;;;;;;8.27;6.03;;;6.10;99.90;;;;;;5050223;28;20682;-77
2022/12/06 01:23:54;;;;;;;7.45;6.40;;;6.10;99.90;;;;;;5048934;28;20229;-76
2022/12/06 01:26:41;;;;;;;7.03;5.82;;;6.10;99.90;;;;;;5053540;28;20220;-77
2022/12/06 01:29:26;;;;;;;8.10;6.32;;;6.20;99.90;;;;;;5052378;28;20221;-76
2022/12/06 01:32:12;;;;;;;6.72;5.60;;;6.20;99.90;;;;;;5033319;28;20583;-76
2022/12/06 01:34:58;;;;;;;7.88;6.05;;;6.10;99.90;;;;;;5032743;28;20221;-77
2022/12/06 01:37:44;;;;;;;7.07;5.40;;;6.10;99.90;;;;;;5033086;28;20221;-76
2022/12/06 01:40:29;;;;;;;6.60;5.78;;;6.20;99.90;;;;;;5050275;28;20200;-77
2022/12/06 01:43:35;;;;;;;7.13;5.90;;;6.10;99.90;;;;;;5047460;28;20252;-77
2022/12/06 01:46:28;;;;;;;6.32;5.70;;;6.10;99.90;;;;;;5052532;28;20221;-77
2022/12/06 01:49:18;;;;;;;7.40;6.35;;;6.20;99.90;;;;;;5051365;28;20591;-77
2022/12/06 01:52:09;;;;;;;7.05;6.35;;;6.20;99.90;;;;;;5043474;28;20685;-76
2022/12/06 01:54:54;;;;;;;9.10;7.10;;;6.20;99.90;;;;;;5051557;28;20225;-76
2022/12/06 01:57:40;;;;;;;7.38;6.57;;;6.10;99.90;;;;;;5051082;28;20221;-77
2022/12/06 02:00:27;;;;;;;7.32;6.63;;;6.10;99.90;;;;;;5033222;28;20205;-77
2022/12/06 02:03:21;;;;;;;7.82;6.80;;;6.00;99.90;;;;;;5050333;28;20263;-77
2022/12/06 02:06:08;;;;;;;8.10;6.65;;;6.00;99.90;;;;;;5050060;28;20216;-77
2022/12/06 02:08:56;;;;;;;8.73;7.38;;;6.00;99.90;;;;;;5052392;28;20201;-76
2022/12/06 02:11:42;;;;;;;7.75;6.95;;;6.00;99.90;;;;;;5038440;28;20209;-76
2022/12/06 02:14:32;;;;;;;8.70;7.68;;;6.00;99.90;;;;;;5060819;22;20684;-75
2022/12/06 02:17:32;;;;;;;10.13;9.07;;;6.00;99.90;;;;;;5065627;28;20204;-75
2022/12/06 02:20:29;;;;;;;9.32;8.20;;;6.00;99.90;;;;;;5041244;28;20276;-75
2022/12/06 02:23:38;;;;;;;13.32;8.93;;;6.00;99.90;;;;;;5051497;28;20693;-76
2022/12/06 02:26:36;;;;;;;11.18;8.70;;;5.90;99.90;;;;;;5048280;28;20220;-75
2022/12/06 02:29:48;;;;;;;9.10;8.07;;;5.90;99.90;;;;;;5045863;28;20347;-75
2022/12/06 02:32:42;;;;;;;9.27;8.25;;;5.80;99.90;;;;;;5041555;28;20645;-75
2022/12/06 02:35:33;;;;;;;9.55;7.78;;;5.80;99.90;;;;;;5043150;28;20217;-75
2022/12/06 02:38:25;;;;;;;8.82;7.72;;;5.90;99.90;;;;;;5050648;28;20240;-75
2022/12/06 02:41:15;;;;;;;9.60;7.78;;;5.90;99.90;;;;;;5048810;28;20686;-76
2022/12/06 02:44:05;;;;;;;9.02;7.93;;;5.90;99.90;;;;;;5049825;28;20414;-75
2022/12/06 02:46:53;;;;;;;7.80;7.00;;;6.00;99.90;;;;;;5038959;28;20714;-74
2022/12/06 02:49:48;;;;;;;8.38;7.07;;;6.00;99.90;;;;;;5033923;28;20201;-75
2022/12/06 02:52:36;;;;;;;7.60;6.80;;;5.90;99.90;;;;;;5043104;28;20755;-75
2022/12/06 02:55:24;;;;;;;8.75;6.97;;;5.90;99.90;;;;;;5054005;28;20216;-75
2022/12/06 02:58:10;;;;;;;8.13;6.40;;;5.90;99.90;;;;;;5050600;28;20567;-75
2022/12/06 03:00:58;;;;;;;8.13;6.70;;;6.00;99.90;;;;;;5053776;28;20247;-74
2022/12/06 03:04:15;;;;;;;8.23;7.22;;;5.90;99.90;;;;;;5071978;28;20220;-75
2022/12/06 03:07:16;;;;;;;10.40;7.70;;;5.90;99.90;;;;;;5046267;28;20782;-76
2022/12/06 03:10:20;;;;;;;7.93;7.13;;;6.00;99.90;;;;;;5047788;28;20209;-75
2022/12/06 03:13:13;;;;;;;7.68;6.68;;;5.90;99.90;;;;;;5053423;28;20204;-75
2022/12/06 03:16:02;;;;;;;8.70;7.53;;;6.00;99.90;;;;;;5050155;28;20268;-75
2022/12/06 03:18:52;;;;;;;8.18;6.47;;;5.90;99.90;;;;;;5051769;28;20204;-75
2022/12/06 03:21:40;;;;;;;10.93;8.13;;;5.90;99.90;;;;;;5045062;28;20685;-73
2022/12/06 03:24:29;;;;;;;8.60;6.57;;;5.80;99.90;;;;;;5062074;28;20342;-75
2022/12/06 03:27:19;;;;;;;8.50;6.75;;;5.90;99.90;;;;;;5042713;28;20591;-75
2022/12/06 03:30:08;;;;;;;9.60;7.78;;;5.90;99.90;;;;;;5043655;28;20240;-75
2022/12/06 03:32:54;;;;;;;9.93;8.80;;;6.00;99.90;;;;;;5052278;28;20268;-75
2022/12/06 03:35:40;;;;;;;10.20;8.20;;;6.10;99.90;;;;;;5048849;28;20197;-76
2022/12/06 03:38:30;;;;;;;10.00;7.85;;;6.10;99.90;;;;;;5051587;28;20205;-76
2022/12/06 03:41:22;;;;;;;9.30;7.72;;;6.20;99.90;;;;;;5048327;28;20204;-75
2022/12/06 03:44:08;;;;;;;10.60;8.73;;;6.20;99.90;;;;;;5047247;28;20229;-75
2022/12/06 03:46:59;;;;;;;9.00;8.10;;;6.20;99.90;;;;;;5042057;28;20298;-74
2022/12/06 03:49:48;;;;;;;11.80;9.43;;;6.20;99.90;;;;;;5045218;28;21517;-74
2022/12/06 03:52:34;;;;;;;9.65;8.65;;;6.20;99.90;;;;;;5049649;28;20209;-75
2022/12/06 03:55:19;;;;;;;10.70;8.40;;;6.20;99.90;;;;;;5050870;28;20689;-75
2022/12/06 03:58:06;;;;;;;8.88;7.75;;;6.20;99.90;;;;;;5057505;28;20206;-76
2022/12/06 04:00:52;;;;;;;7.80;6.57;;;6.20;99.90;;;;;;5047189;28;20202;-75
2022/12/06 04:03:38;;;;;;;8.50;6.10;;;6.10;99.90;;;;;;5052596;28;20229;-75
2022/12/06 04:06:24;;;;;;;5.82;4.78;;;6.10;99.90;;;;;;5048842;28;20306;-75
2022/12/06 04:15:14;;;;;;;7.20;6.40;;;5.90;99.90;;;;;;5045329;28;20713;-75
2022/12/06 04:18:17;;;;;;;6.07;5.13;;;5.90;99.90;;;;;;5051605;28;20286;-74
2022/12/06 04:24:08;;;;;;;6.68;5.45;;;6.10;99.90;;;;;;5050207;28;20267;-75
2022/12/06 04:28:40;;;;;;;7.30;5.47;;;6.10;99.90;;;;;;5040283;28;20226;-75
2022/12/06 04:39:11;;;;;;;6.90;6.20;;;6.00;99.90;;;;;;5037980;28;20221;-76
2022/12/06 04:45:00;;;;;;;6.85;5.80;;;6.00;99.90;;;;;;5042248;28;20217;-74
2022/12/06 04:47:46;;;;;;;11.82;6.45;;;6.10;99.90;;;;;;5037527;28;20229;-76
2022/12/06 04:50:33;;;;;;;6.95;5.95;;;6.10;99.90;;;;;;5043024;28;20205;-76
2022/12/06 04:53:18;;;;;;;6.75;6.05;;;6.10;99.90;;;;;;5040947;28;20562;-76
2022/12/06 04:56:04;;;;;;;9.70;5.97;;;6.10;99.90;;;;;;5052292;28;20201;-75
2022/12/06 04:58:50;;;;;;;6.95;6.22;;;6.10;99.90;;;;;;5047056;28;20680;-75
2022/12/06 05:01:35;;;;;;;9.10;7.45;;;6.10;99.90;;;;;;5053126;28;20204;-76
2022/12/06 05:04:21;;;;;;;8.60;6.88;;;6.10;99.90;;;;;;5051120;28;20705;-76
2022/12/06 05:07:10;;;;;;;8.63;6.93;;;6.00;99.90;;;;;;5051186;28;20371;-75
2022/12/06 05:09:56;;;;;;;10.52;7.13;;;6.00;99.90;;;;;;5044866;28;20562;-75
2022/12/06 05:12:41;;;;;;;7.85;7.05;;;5.90;99.90;;;;;;5050020;28;20282;-74
2022/12/06 05:15:27;;;;;;;8.35;7.35;;;5.90;99.90;;;;;;5049065;28;20322;-75
2022/12/06 05:18:13;;;;;;;9.15;7.00;;;5.90;99.90;;;;;;5047908;28;20201;-75
2022/12/06 05:21:03;;;;;;;7.93;6.65;;;5.90;99.90;;;;;;5049257;28;20209;-75
2022/12/06 05:23:52;;;;;;;8.55;7.05;;;6.00;99.90;;;;;;5058012;28;20270;-75
2022/12/06 05:26:37;;;;;;;8.60;7.07;;;6.00;99.90;;;;;;5050878;28;20359;-74
2022/12/06 05:29:22;;;;;;;7.57;6.25;;;6.00;99.90;;;;;;5041873;28;20215;-75
2022/12/06 05:32:08;;;;;;;7.10;5.90;;;6.00;99.90;;;;;;5042423;28;20247;-74
2022/12/06 05:34:54;;;;;;;7.43;6.20;;;5.90;99.90;;;;;;5051142;28;20268;-75
2022/12/06 05:37:40;;;;;;;8.75;5.95;;;5.80;99.90;;;;;;5051782;28;20220;-75
2022/12/06 05:40:26;;;;;;;8.07;6.32;;;5.80;99.90;;;;;;5051994;28;20212;-75
2022/12/06 05:43:12;;;;;;;10.23;6.93;;;5.80;99.90;;;;;;5044720;28;20216;-75
2022/12/06 05:45:58;;;;;;;7.70;5.60;;;5.80;99.90;;;;;;5041445;28;20205;-75
2022/12/06 05:48:44;;;;;;;9.18;7.40;;;5.70;99.90;;;;;;5037034;28;20210;-75
2022/12/06 05:51:29;;;;;;;7.70;6.45;;;5.80;99.90;;;;;;5045713;28;20204;-73
2022/12/06 05:54:15;;;;;;;10.02;6.57;;;5.80;99.90;;;;;;5047775;28;20227;-75
2022/12/06 05:57:02;;;;;;;9.85;5.25;;;5.90;99.90;;;;;;5038404;28;20201;-75
2022/12/06 05:59:47;;;;;;;9.45;6.00;;;5.90;99.90;;;;;;5041350;28;20205;-75
2022/12/06 06:02:33;;;;;;;7.10;5.70;;;5.90;99.90;;;;;;5051580;28;20303;-75
2022/12/06 06:05:19;;;;;;;8.77;5.75;;;5.80;99.90;;;;;;5040625;28;20921;-75
2022/12/06 06:08:05;;;;;;;8.75;5.72;;;5.80;99.90;;;;;;5048585;28;20236;-75
2022/12/06 06:10:50;;;;;;;6.38;5.72;;;5.70;99.90;;;;;;5053763;28;20583;-75
2022/12/06 06:13:37;;;;;;;7.78;5.85;;;5.70;99.90;;;;;;5047494;28;20221;-74
2022/12/06 06:16:23;;;;;;;6.97;5.57;;;5.80;99.90;;;;;;5049947;28;20626;-75
2022/12/06 06:19:08;;;;;;;8.30;5.30;;;5.80;99.90;;;;;;5052908;28;20205;-75
2022/12/06 06:21:54;;;;;;;9.07;5.97;;;5.80;99.90;;;;;;5059493;28;20501;-74
2022/12/06 06:24:41;;;;;;;6.88;5.72;;;5.70;99.90;;;;;;5053209;28;20228;-75
2022/12/06 06:27:27;;;;;;;9.13;5.53;;;5.70;99.90;;;;;;5040117;28;20228;-75
2022/12/06 06:30:14;;;;;;;6.22;5.05;;;5.50;99.90;;;;;;5056417;28;20201;-75
2022/12/06 06:33:00;;;;;;;11.43;6.32;;;5.50;99.90;;;;;;5048948;28;20208;-75
2022/12/06 06:35:46;;;;;;;12.32;5.55;;;5.50;99.90;;;;;;5060970;28;20635;-75
2022/12/06 06:38:31;;;;;;;8.15;5.32;;;5.60;99.90;;;;;;5047488;28;20216;-75
2022/12/06 06:41:17;;;;;;;7.20;5.05;;;5.40;99.90;;;;;;5066282;28;20204;-74
2022/12/06 06:44:02;;;;;;;7.97;6.18;;;5.40;99.90;;;;;;5060285;28;20752;-71
2022/12/06 06:46:49;;;;;;;5.60;5.10;;;5.40;99.90;;;;;;5047925;28;20228;-74
2022/12/06 06:49:35;;;;;;;8.55;6.05;;;5.30;99.90;;;;;;5057145;28;20696;-75
2022/12/06 06:52:20;;;;;;;7.57;5.30;;;5.40;99.90;;;;;;5075662;28;20677;-75
2022/12/06 06:55:07;;;;;;;6.60;5.78;;;5.40;99.90;;;;;;5063796;28;20233;-75
2022/12/06 06:57:53;;;;;;;7.72;5.47;;;5.50;99.90;;;;;;5044103;28;20248;-75
2022/12/06 07:00:38;;;;;;;7.55;5.28;;;5.40;99.90;;;;;;5053232;28;20274;-76
2022/12/06 07:03:26;;;;;;;8.02;5.68;;;5.40;99.90;;;;;;5053831;28;20200;-75
2022/12/06 07:06:12;;;;;;;13.73;6.00;;;5.40;99.90;;;;;;5064929;28;20271;-73
2022/12/06 07:08:57;;;;;;;7.30;5.30;;;5.50;99.90;;;;;;5055654;28;20290;-74
2022/12/06 07:11:43;;;;;;;6.80;4.90;;;5.60;99.90;;;;;;5043001;28;20264;-75
2022/12/06 07:14:29;;;;;;;6.38;5.43;;;5.50;99.90;;;;;;5053123;28;20287;-75
2022/12/06 07:17:14;;;;;;;7.03;5.53;;;5.60;99.90;;;;;;5051129;28;20205;-75
2022/12/06 07:20:01;;;;;;;8.48;5.38;;;5.60;99.90;;;;;;5055345;28;20275;-75
2022/12/06 07:22:47;;;;;;;7.85;6.55;;;5.60;99.90;;;;;;5065844;28;20204;-76
2022/12/06 07:25:32;;;;;;;10.57;7.68;;;5.50;99.90;;;;;;5073127;28;20690;-75
2022/12/06 07:28:18;;;;;;;7.60;5.30;;;5.40;99.90;;;;;;5048178;28;20726;-75
2022/12/06 07:31:15;;;;;;;17.48;8.30;;;5.40;99.90;;;;;;5053614;28;20329;-75
2022/12/06 07:34:02;;;;;;;12.82;8.20;;;5.40;99.90;;;;;;5055880;28;20233;-75
2022/12/06 07:36:49;;;;;;;16.40;9.05;;;5.40;99.90;;;;;;5050442;28;20562;-75
2022/12/06 07:39:34;;;;;;;102.88;36.97;;;5.40;99.90;;;;;;5059612;28;20204;-75
2022/12/06 07:45:23;;;;;;;18.25;10.52;;;5.50;99.90;;;;;;5039506;28;20753;-75
2022/12/06 07:48:10;;;;;;;16.23;11.18;;;5.40;99.90;;;;;;5058204;28;20347;-74
2022/12/06 07:50:55;;;;;;;11.63;8.20;;;5.50;99.90;;;;;;5055864;28;20208;-75
2022/12/06 07:53:43;;;;;;;6.38;5.55;;;5.40;99.90;;;;;;5046327;28;20352;-75
2022/12/06 07:56:28;;;;;;;9.85;7.00;;;5.40;99.90;;;;;;5049515;28;20232;-75
2022/12/06 07:59:14;;;;;;;5.95;5.28;;;5.40;99.90;;;;;;5054065;28;20212;-75
2022/12/06 08:01:59;;;;;;;6.50;5.03;;;5.40;99.90;;;;;;5055173;28;20331;-75
2022/12/06 08:04:45;;;;;;;6.03;4.88;;;5.40;99.90;;;;;;5073432;28;20758;-75
2022/12/06 08:07:31;;;;;;;5.93;4.90;;;5.50;99.90;;;;;;5057157;28;20225;-74
2022/12/06 08:10:18;;;;;;;5.57;4.97;;;5.40;99.90;;;;;;5058398;28;20205;-75
2022/12/06 08:13:04;;;;;;;6.32;4.55;;;5.30;99.90;;;;;;5060993;28;20205;-75
2022/12/06 08:15:50;;;;;;;5.75;4.30;;;5.40;99.90;;;;;;5051323;28;20209;-75
2022/12/06 08:18:36;;;;;;;8.60;5.30;;;5.40;99.90;;;;;;5052683;28;21680;-76
2022/12/06 08:21:22;;;;;;;8.32;5.70;;;5.50;99.90;;;;;;5046518;28;20192;-74
2022/12/06 08:24:07;;;;;;;6.40;5.22;;;5.60;99.90;;;;;;5049691;28;20247;-75
2022/12/06 08:26:55;;;;;;;5.00;4.20;;;5.50;99.90;;;;;;5050390;28;20218;-75
2022/12/06 08:29:40;;;;;;;6.32;5.60;;;5.60;99.90;;;;;;5048902;28;20298;-72
2022/12/06 08:32:26;;;;;;;5.28;4.40;;;5.50;99.90;;;;;;5050841;28;20204;-75
2022/12/06 08:35:12;;;;;;;5.30;4.13;;;5.40;99.90;;;;;;5049647;28;20288;-75
2022/12/06 08:37:57;;;;;;;6.30;4.97;;;5.50;99.90;;;;;;5050047;28;20331;-75
2022/12/06 08:40:43;;;;;;;10.27;7.40;;;5.60;99.90;;;;;;5049322;28;20248;-77
2022/12/06 08:43:30;;;;;;;7.85;4.85;;;5.60;99.90;;;;;;5059245;28;20228;-75
2022/12/06 08:46:16;;;;;;;6.32;5.35;;;5.60;99.90;;;;;;5049466;28;20205;-75
2022/12/06 08:49:02;;;;;;;8.93;5.15;;;5.50;99.90;;;;;;5048723;28;20586;-75
2022/12/06 08:51:47;;;;;;;5.57;5.00;;;5.50;99.90;;;;;;5043108;28;20227;-75
2022/12/06 08:54:34;;;;;;;9.38;5.70;;;5.50;99.90;;;;;;5048154;28;20231;-76
2022/12/06 08:57:19;;;;;;;9.70;5.38;;;5.50;99.90;;;;;;5056325;28;20196;-74
2022/12/06 09:00:09;;;;;;;5.20;4.65;;;5.60;99.90;;;;;;5044694;28;20705;-74
2022/12/06 09:02:55;;;;;;;23.95;14.45;;;5.70;99.90;;;;;;5040274;28;20778;-73
2022/12/06 09:05:41;;;;;;;8.10;5.78;;;5.70;99.90;;;;;;5051870;28;20212;-76
2022/12/06 09:08:27;;;;;;;7.45;5.22;;;5.60;99.90;;;;;;5051459;28;20240;-74
2022/12/06 09:11:13;;;;;;;5.93;4.70;;;5.70;99.90;;;;;;5063194;28;20200;-76
2022/12/06 09:13:59;;;;;;;5.45;4.30;;;5.80;99.90;;;;;;5044249;28;20591;-74
2022/12/06 09:16:46;;;;;;;5.75;4.18;;;5.80;99.90;;;;;;5037241;28;20214;-76
2022/12/06 09:19:32;;;;;;;5.15;4.43;;;5.80;99.90;;;;;;5045201;28;20580;-75
2022/12/06 09:22:17;;;;;;;4.95;4.32;;;5.90;99.90;;;;;;5049651;28;20200;-72
2022/12/06 09:25:04;;;;;;;5.53;4.93;;;6.00;99.90;;;;;;5045301;28;20228;-75
2022/12/06 09:27:49;;;;;;;5.78;5.18;;;6.00;99.90;;;;;;5048506;28;20638;-75
2022/12/06 09:30:35;;;;;;;6.28;4.60;;;6.00;99.90;;;;;;5052795;28;20299;-74
2022/12/06 09:33:23;;;;;;;5.22;4.72;;;6.00;99.90;;;;;;5047764;28;20205;-77
2022/12/06 09:36:13;;;;;;;5.93;4.70;;;6.00;99.90;;;;;;5051962;28;20209;-74
2022/12/06 09:39:03;;;;;;;6.13;4.75;;;6.00;99.90;;;;;;5071657;28;20200;-76
2022/12/06 09:42:16;;;;;;;4.50;3.90;;;6.00;99.90;;;;;;5041899;28;20689;-76
2022/12/06 09:45:15;;;;;;;6.63;4.85;;;5.90;99.90;;;;;;5031313;28;20225;-73
2022/12/06 09:48:25;;;;;;;5.47;4.55;;;5.90;99.90;;;;;;5056418;28;20236;-75
2022/12/06 09:51:23;;;;;;;8.82;5.00;;;5.90;99.90;;;;;;5016404;28;20216;-76
2022/12/06 09:54:26;;;;;;;7.25;5.85;;;5.90;99.90;;;;;;5031007;28;20337;-76
2022/12/06 09:57:19;;;;;;;7.22;6.43;;;5.80;99.90;;;;;;5031264;28;20223;-76
2022/12/06 10:00:08;;;;;;;5.13;4.55;;;5.70;99.90;;;;;;5031495;28;20205;-76
2022/12/06 10:03:16;;;;;;;6.25;5.03;;;5.70;99.90;;;;;;5034665;28;20209;-76
2022/12/06 10:06:04;;;;;;;5.68;5.07;;;5.70;99.90;;;;;;5035919;28;20205;-76
2022/12/06 10:09:13;;;;;;;5.90;5.10;;;5.60;99.90;;;;;;5037669;28;20657;-76
2022/12/06 10:12:13;;;;;;;7.30;5.53;;;5.60;99.90;;;;;;5045771;28;20316;-75
2022/12/06 10:15:19;;;;;;;7.45;6.40;;;5.60;99.90;;;;;;5042659;28;20239;-74
2022/12/06 10:18:19;;;;;;;6.78;5.82;;;5.50;99.90;;;;;;5052480;28;20193;-74
2022/12/06 10:21:11;;;;;;;8.30;6.43;;;5.40;99.90;;;;;;5043754;28;20267;-75
2022/12/06 10:24:07;;;;;;;7.63;5.63;;;5.50;99.90;;;;;;5041653;28;20832;-74
2022/12/06 10:26:54;;;;;;;8.45;6.47;;;5.50;99.90;;;;;;5046877;28;20217;-74
2022/12/06 10:29:54;;;;;;;7.13;5.72;;;5.40;99.90;;;;;;5035122;28;20271;-74
2022/12/06 10:32:52;;;;;;;6.22;5.63;;;5.50;99.90;;;;;;5045827;28;20672;-74
2022/12/06 10:35:42;;;;;;;6.40;5.68;;;5.60;99.90;;;;;;5048174;28;20204;-75
2022/12/06 10:38:34;;;;;;;5.13;4.72;;;5.70;99.90;;;;;;5050057;28;20729;-75
2022/12/06 10:41:25;;;;;;;5.60;4.75;;;5.70;99.90;;;;;;5052417;28;20212;-75
2022/12/06 10:44:20;;;;;;;4.97;4.47;;;5.60;99.90;;;;;;5050657;28;20225;-75
2022/12/06 10:47:11;;;;;;;7.20;5.13;;;5.60;99.90;;;;;;5049723;28;20201;-74
2022/12/06 10:50:02;;;;;;;5.80;5.20;;;5.60;99.90;;;;;;5048386;28;20209;-75
2022/12/06 10:52:51;;;;;;;5.25;4.75;;;5.70;99.90;;;;;;5045409;28;20223;-74
2022/12/06 10:55:42;;;;;;;5.68;5.07;;;5.80;99.90;;;;;;5043856;28;20726;-74
2022/12/06 10:58:33;;;;;;;6.50;4.90;;;5.80;99.90;;;;;;5048207;28;20200;-75
2022/12/06 11:01:24;;;;;;;5.70;4.70;;;5.90;99.90;;;;;;5043279;28;20571;-76
2022/12/06 11:04:15;;;;;;;5.85;5.25;;;6.00;99.90;;;;;;5043613;28;20225;-75
2022/12/06 11:07:08;;;;;;;5.97;4.60;;;5.90;99.90;;;;;;5052366;28;20694;-73
2022/12/06 11:09:55;;;;;;;5.88;5.03;;;5.90;99.90;;;;;;5041048;28;20205;-72
2022/12/06 11:12:42;;;;;;;12.43;9.02;;;5.90;99.90;;;;;;5056081;28;20592;-75
2022/12/06 11:15:33;;;;;;;16.35;9.70;;;5.90;99.90;;;;;;5047056;28;20229;-76
2022/12/06 11:18:20;;;;;;;11.07;6.53;;;5.90;99.90;;;;;;5046840;28;20271;-73
2022/12/06 11:21:18;;;;;;;7.40;6.60;;;5.90;99.90;;;;;;5043522;28;20201;-74
2022/12/06 11:24:13;;;;;;;8.23;5.93;;;5.90;99.90;;;;;;5042162;28;20380;-74
2022/12/06 11:27:04;;;;;;;7.80;5.15;;;5.90;99.90;;;;;;5038985;28;20201;-75
2022/12/06 11:29:52;;;;;;;5.85;4.78;;;6.00;99.90;;;;;;5049816;28;20205;-74
2022/12/06 11:32:40;;;;;;;6.15;5.22;;;5.90;99.90;;;;;;5053280;28;20248;-75
2022/12/06 11:35:28;;;;;;;5.82;4.80;;;5.80;99.90;;;;;;5033570;28;20225;-74
2022/12/06 11:38:16;;;;;;;6.30;5.15;;;5.80;99.90;;;;;;5034031;28;20209;-76
2022/12/06 11:41:05;;;;;;;7.50;5.88;;;5.70;99.90;;;;;;5064324;28;20251;-76
2022/12/06 11:43:52;;;;;;;7.28;5.10;;;5.70;99.90;;;;;;5040638;28;20311;-75
2022/12/06 11:46:39;;;;;;;6.45;4.85;;;5.70;99.90;;;;;;5033916;28;20225;-76
2022/12/06 11:49:28;;;;;;;7.72;5.85;;;5.80;99.90;;;;;;5033487;28;20704;-75
2022/12/06 11:52:18;;;;;;;6.80;6.10;;;5.80;99.90;;;;;;5034415;28;20205;-75
2022/12/06 11:55:07;;;;;;;5.97;5.05;;;5.80;99.90;;;;;;5044551;28;20228;-75
2022/12/06 11:57:57;;;;;;;5.25;4.75;;;5.70;99.90;;;;;;5033767;28;21051;-75
2022/12/06 12:00:56;;;;;;;6.75;4.70;;;5.80;99.90;;;;;;5033501;28;20563;-76
2022/12/06 12:03:44;;;;;;;5.25;4.60;;;5.90;99.90;;;;;;5040923;28;20224;-76
2022/12/06 12:06:32;;;;;;;4.80;4.30;;;6.10;99.90;;;;;;5035319;28;20210;-76
2022/12/06 12:09:19;;;;;;;4.88;4.38;;;6.20;99.90;;;;;;5036220;28;20357;-77
2022/12/06 12:12:12;;;;;;;5.72;4.50;;;6.20;99.90;;;;;;5061508;28;20225;-74
2022/12/06 12:14:58;;;;;;;6.30;4.97;;;6.10;99.90;;;;;;5042980;28;20228;-76
2022/12/06 12:17:48;;;;;;;5.95;5.35;;;6.20;99.90;;;;;;5053458;28;20573;-76
2022/12/06 12:20:38;;;;;;;5.30;4.60;;;6.10;99.90;;;;;;5052594;28;20267;-75
2022/12/06 12:23:29;;;;;;;5.22;4.57;;;6.10;99.90;;;;;;5040777;28;20289;-75
2022/12/06 12:26:16;;;;;;;5.50;5.00;;;6.00;99.90;;;;;;5032700;28;20252;-76
2022/12/06 12:29:16;;;;;;;5.15;4.55;;;6.10;99.90;;;;;;5032619;28;20281;-75
2022/12/06 12:32:10;;;;;;;6.13;5.43;;;6.00;99.90;;;;;;5035107;28;20221;-76
2022/12/06 12:34:56;;;;;;;6.85;4.95;;;6.10;99.90;;;;;;5040928;28;20300;-75
2022/12/06 12:37:42;;;;;;;5.30;4.30;;;6.10;99.90;;;;;;5032723;28;20205;-75
2022/12/06 12:40:34;;;;;;;6.55;5.00;;;6.20;99.90;;;;;;5055413;28;20207;-76
2022/12/06 12:43:23;;;;;;;5.40;4.90;;;6.30;99.90;;;;;;5059147;28;20207;-75
2022/12/06 12:46:19;;;;;;;4.75;3.90;;;6.30;99.90;;;;;;5072932;28;20274;-76
2022/12/06 12:49:23;;;;;;;5.35;4.68;;;6.30;99.90;;;;;;5044891;28;20221;-76
2022/12/06 12:52:28;;;;;;;6.18;5.13;;;6.20;99.90;;;;;;5040914;28;20228;-76
2022/12/06 12:55:16;;;;;;;5.85;4.90;;;6.10;99.90;;;;;;5054052;28;20246;-76
2022/12/06 12:58:09;;;;;;;5.60;4.60;;;6.00;99.90;;;;;;5061737;28;20698;-76
2022/12/06 13:01:02;;;;;;;6.68;5.15;;;6.10;99.90;;;;;;5047999;28;20213;-73
2022/12/06 13:03:57;;;;;;;5.88;5.28;;;6.00;99.90;;;;;;5048648;28;20597;-76
2022/12/06 13:06:49;;;;;;;7.00;5.53;;;6.10;99.90;;;;;;5045647;28;20236;-76
2022/12/06 13:09:43;;;;;;;5.22;4.72;;;5.90;99.90;;;;;;5048363;28;20355;-77
2022/12/06 13:12:34;;;;;;;6.72;6.00;;;5.90;99.90;;;;;;5044223;28;20204;-74
2022/12/06 13:15:25;;;;;;;6.43;4.95;;;5.90;99.90;;;;;;5048348;28;20347;-76
2022/12/06 13:18:18;;;;;;;5.50;4.82;;;5.90;99.90;;;;;;5041674;28;20206;-76
2022/12/06 13:21:11;;;;;;;5.45;4.68;;;6.00;99.90;;;;;;5054285;28;20198;-75
2022/12/06 13:24:05;;;;;;;5.18;4.35;;;6.00;99.90;;;;;;5047640;28;20713;-75
2022/12/06 13:26:56;;;;;;;8.68;5.13;;;6.10;99.90;;;;;;5052743;28;20271;-75
2022/12/06 13:29:47;;;;;;;6.32;4.90;;;6.00;99.90;;;;;;5057497;28;20224;-76
2022/12/06 13:32:39;;;;;;;6.15;5.20;;;6.10;99.90;;;;;;5041896;28;20208;-77
2022/12/06 13:35:29;;;;;;;6.90;5.10;;;6.00;99.90;;;;;;5047924;28;20220;-76
2022/12/06 13:38:25;;;;;;;5.45;4.88;;;6.00;99.90;;;;;;5044899;28;20213;-74
2022/12/06 13:41:14;;;;;;;6.65;5.00;;;6.00;99.90;;;;;;5045077;28;20212;-74
2022/12/06 13:43:59;;;;;;;6.10;4.95;;;6.10;99.90;;;;;;5048893;28;20236;-75
2022/12/06 13:46:46;;;;;;;5.70;4.78;;;6.20;99.90;;;;;;5043968;28;20271;-73
2022/12/06 13:49:43;;;;;;;9.68;5.50;;;6.20;99.90;;;;;;5050818;28;20701;-75
2022/12/06 13:53:14;;;;;;;5.28;4.60;;;6.20;99.90;;;;;;5040191;28;20343;-74
2022/12/06 13:56:01;;;;;;;8.63;5.90;;;6.10;99.90;;;;;;5059570;28;20262;-75
2022/12/06 13:58:53;;;;;;;5.88;4.82;;;6.10;99.90;;;;;;5062683;28;20205;-75
2022/12/06 14:01:42;;;;;;;4.65;3.53;;;6.20;99.90;;;;;;5060556;28;20197;-75
2022/12/06 14:04:38;;;;;;;7.20;4.88;;;6.10;99.90;;;;;;5063877;28;20693;-75
2022/12/06 14:07:33;;;;;;;4.75;4.30;;;6.20;99.90;;;;;;5067998;28;20576;-75
2022/12/06 14:10:19;;;;;;;6.63;5.07;;;6.20;99.90;;;;;;5064396;28;20231;-74
2022/12/06 14:13:06;;;;;;;6.00;4.60;;;6.10;99.90;;;;;;5057351;28;20235;-75
2022/12/06 14:15:52;;;;;;;5.32;4.82;;;6.10;99.90;;;;;;5075186;22;20313;-76
2022/12/06 14:18:42;;;;;;;6.20;4.72;;;6.20;99.90;;;;;;5053648;28;20196;-76
2022/12/06 14:21:31;;;;;;;5.30;4.70;;;6.30;99.90;;;;;;5050424;28;20201;-77
2022/12/06 14:24:31;;;;;;;5.35;4.40;;;6.40;99.90;;;;;;5058866;28;20341;-76
2022/12/06 14:27:20;;;;;;;6.15;4.70;;;6.30;99.90;;;;;;5079089;28;20233;-77
2022/12/06 14:30:15;;;;;;;5.68;4.75;;;6.30;99.90;;;;;;5074642;28;20228;-76
2022/12/06 14:33:01;;;;;;;6.55;5.30;;;6.30;99.90;;;;;;5079317;28;20203;-76
2022/12/06 14:35:51;;;;;;;7.70;5.10;;;6.40;99.90;;;;;;5079606;28;20227;-73
2022/12/06 14:38:37;;;;;;;5.70;4.75;;;6.40;99.90;;;;;;5073871;28;20195;-73
2022/12/06 14:44:37;;;;;;;5.80;5.15;;;6.50;99.90;;;;;;5079896;28;20276;-73
2022/12/06 14:47:23;;;;;;;11.68;4.43;;;6.40;99.90;;;;;;5070004;28;20635;-74
2022/12/06 14:50:28;;;;;;;5.53;4.23;;;6.50;99.90;;;;;;5072394;28;20298;-76
2022/12/06 14:53:15;;;;;;;5.70;4.53;;;6.60;99.90;;;;;;5084913;28;20430;-73
2022/12/06 14:56:03;;;;;;;6.63;5.00;;;6.70;99.90;;;;;;5079038;28;20228;-73
2022/12/06 14:58:50;;;;;;;6.05;4.70;;;6.60;99.90;;;;;;5084003;28;20200;-74
2022/12/06 15:01:45;;;;;;;4.85;4.25;;;6.70;99.90;;;;;;5073343;28;20219;-73
2022/12/06 15:04:37;;;;;;;5.28;4.78;;;6.60;99.90;;;;;;5082028;28;20222;-74
2022/12/06 15:07:38;;;;;;;5.45;4.55;;;6.60;99.90;;;;;;5070872;28;20223;-74
2022/12/06 15:10:28;;;;;;;4.93;4.30;;;6.70;99.90;;;;;;5080951;28;20218;-73
2022/12/06 15:13:16;;;;;;;4.97;4.10;;;6.70;99.90;;;;;;5082983;28;20204;-73
2022/12/06 15:16:14;;;;;;;6.78;4.15;;;6.70;99.90;;;;;;5084487;28;20719;-73
2022/12/06 15:19:00;;;;;;;5.57;5.03;;;6.70;99.90;;;;;;5085602;28;20199;-73